sensor_id;sensor_type;location;lat;lon;timestamp;P1;durP1;ratioP1;P2;durP2;ratioP2
23280;SDS011;11809;56.390;-3.266;2023-05-20T00:01:09;7.18;;;3.53;;
23280;SDS011;11809;56.390;-3.266;2023-05-20T00:03:36;5.75;;;2.97;;
23280;SDS011;11809;56.390;-3.266;2023-05-20T00:06:03;6.50;;;3.10;;
23280;SDS011;11809;56.390;-3.266;2023-05-20T00:08:30;6.70;;;3.25;;
23280;SDS011;11809;56.390;-3.266;2023-05-20T00:10:57;6.05;;;2.90;;
23280;SDS011;11809;56.390;-3.266;2023-05-20T00:13:24;5.60;;;3.03;;
23280;SDS011;11809;56.390;-3.266;2023-05-20T00:15:52;5.95;;;3.30;;
23280;SDS011;11809;56.390;-3.266;2023-05-20T00:18:19;5.00;;;3.15;;
23280;SDS011;11809;56.390;-3.266;2023-05-20T00:20:46;6.60;;;3.30;;
23280;SDS011;11809;56.390;-3.266;2023-05-20T00:23:13;5.20;;;3.20;;
23280;SDS011;11809;56.390;-3.266;2023-05-20T00:25:40;9.13;;;2.97;;
23280;SDS011;11809;56.390;-3.266;2023-05-20T00:28:07;5.20;;;3.30;;
23280;SDS011;11809;56.390;-3.266;2023-05-20T00:30:34;5.55;;;2.97;;
23280;SDS011;11809;56.390;-3.266;2023-05-20T00:33:01;4.93;;;2.72;;
23280;SDS011;11809;56.390;-3.266;2023-05-20T00:35:29;4.50;;;2.72;;
23280;SDS011;11809;56.390;-3.266;2023-05-20T00:37:56;5.88;;;3.30;;
23280;SDS011;11809;56.390;-3.266;2023-05-20T00:40:23;3.50;;;3.00;;
23280;SDS011;11809;56.390;-3.266;2023-05-20T00:42:50;3.67;;;2.42;;
23280;SDS011;11809;56.390;-3.266;2023-05-20T00:45:17;5.60;;;2.90;;
23280;SDS011;11809;56.390;-3.266;2023-05-20T00:47:44;5.15;;;3.05;;
23280;SDS011;11809;56.390;-3.266;2023-05-20T00:50:12;3.83;;;3.03;;
23280;SDS011;11809;56.390;-3.266;2023-05-20T00:52:39;6.22;;;2.90;;
23280;SDS011;11809;56.390;-3.266;2023-05-20T00:55:09;5.63;;;2.87;;
23280;SDS011;11809;56.390;-3.266;2023-05-20T00:57:36;5.32;;;2.60;;
23280;SDS011;11809;56.390;-3.266;2023-05-20T01:00:04;4.53;;;3.03;;
23280;SDS011;11809;56.390;-3.266;2023-05-20T01:02:33;4.43;;;2.95;;
23280;SDS011;11809;56.390;-3.266;2023-05-20T01:05:02;6.35;;;3.10;;
23280;SDS011;11809;56.390;-3.266;2023-05-20T01:07:29;4.40;;;2.67;;
23280;SDS011;11809;56.390;-3.266;2023-05-20T01:09:57;4.60;;;2.70;;
23280;SDS011;11809;56.390;-3.266;2023-05-20T01:12:25;5.60;;;3.00;;
23280;SDS011;11809;56.390;-3.266;2023-05-20T01:14:56;4.53;;;2.80;;
23280;SDS011;11809;56.390;-3.266;2023-05-20T01:17:28;6.68;;;2.90;;
23280;SDS011;11809;56.390;-3.266;2023-05-20T01:19:58;4.60;;;2.58;;
23280;SDS011;11809;56.390;-3.266;2023-05-20T01:22:27;4.15;;;2.80;;
23280;SDS011;11809;56.390;-3.266;2023-05-20T01:24:55;5.15;;;2.92;;
23280;SDS011;11809;56.390;-3.266;2023-05-20T01:27:22;4.15;;;2.60;;
23280;SDS011;11809;56.390;-3.266;2023-05-20T01:29:50;4.28;;;2.65;;
23280;SDS011;11809;56.390;-3.266;2023-05-20T01:32:38;4.47;;;2.80;;
23280;SDS011;11809;56.390;-3.266;2023-05-20T01:35:08;4.15;;;2.80;;
23280;SDS011;11809;56.390;-3.266;2023-05-20T01:37:37;3.63;;;2.38;;
23280;SDS011;11809;56.390;-3.266;2023-05-20T01:40:06;6.05;;;2.97;;
23280;SDS011;11809;56.390;-3.266;2023-05-20T01:42:35;6.25;;;3.03;;
23280;SDS011;11809;56.390;-3.266;2023-05-20T01:45:03;4.68;;;2.70;;
23280;SDS011;11809;56.390;-3.266;2023-05-20T01:47:31;4.50;;;2.78;;
23280;SDS011;11809;56.390;-3.266;2023-05-20T01:49:58;4.20;;;2.75;;
23280;SDS011;11809;56.390;-3.266;2023-05-20T01:52:25;4.68;;;2.95;;
23280;SDS011;11809;56.390;-3.266;2023-05-20T01:54:52;4.25;;;2.60;;
23280;SDS011;11809;56.390;-3.266;2023-05-20T01:57:20;4.00;;;2.42;;
23280;SDS011;11809;56.390;-3.266;2023-05-20T01:59:48;4.70;;;2.75;;
23280;SDS011;11809;56.390;-3.266;2023-05-20T02:02:16;5.22;;;2.67;;
23280;SDS011;11809;56.390;-3.266;2023-05-20T02:04:47;3.33;;;2.35;;
23280;SDS011;11809;56.390;-3.266;2023-05-20T02:07:16;3.80;;;2.60;;
23280;SDS011;11809;56.390;-3.266;2023-05-20T02:09:44;5.35;;;2.67;;
23280;SDS011;11809;56.390;-3.266;2023-05-20T02:12:12;5.57;;;2.53;;
23280;SDS011;11809;56.390;-3.266;2023-05-20T02:14:43;5.38;;;2.65;;
23280;SDS011;11809;56.390;-3.266;2023-05-20T02:17:11;5.80;;;2.80;;
23280;SDS011;11809;56.390;-3.266;2023-05-20T02:22:13;4.45;;;2.60;;
23280;SDS011;11809;56.390;-3.266;2023-05-20T02:24:40;3.95;;;2.35;;
23280;SDS011;11809;56.390;-3.266;2023-05-20T02:27:09;4.05;;;2.33;;
23280;SDS011;11809;56.390;-3.266;2023-05-20T02:29:36;4.10;;;2.58;;
23280;SDS011;11809;56.390;-3.266;2023-05-20T02:32:03;3.85;;;2.25;;
23280;SDS011;11809;56.390;-3.266;2023-05-20T02:34:30;4.28;;;2.50;;
23280;SDS011;11809;56.390;-3.266;2023-05-20T02:36:58;4.00;;;2.53;;
23280;SDS011;11809;56.390;-3.266;2023-05-20T02:39:25;3.67;;;2.60;;
23280;SDS011;11809;56.390;-3.266;2023-05-20T02:41:54;4.05;;;2.45;;
23280;SDS011;11809;56.390;-3.266;2023-05-20T02:44:21;4.25;;;2.35;;
23280;SDS011;11809;56.390;-3.266;2023-05-20T02:46:49;2.85;;;2.40;;
23280;SDS011;11809;56.390;-3.266;2023-05-20T02:49:16;5.05;;;2.53;;
23280;SDS011;11809;56.390;-3.266;2023-05-20T02:51:43;5.13;;;2.90;;
23280;SDS011;11809;56.390;-3.266;2023-05-20T02:54:10;4.05;;;2.42;;
23280;SDS011;11809;56.390;-3.266;2023-05-20T02:56:37;3.33;;;2.20;;
23280;SDS011;11809;56.390;-3.266;2023-05-20T02:59:04;5.22;;;2.50;;
23280;SDS011;11809;56.390;-3.266;2023-05-20T03:01:32;4.30;;;2.28;;
23280;SDS011;11809;56.390;-3.266;2023-05-20T03:04:01;2.67;;;2.20;;
23280;SDS011;11809;56.390;-3.266;2023-05-20T03:06:29;5.68;;;2.40;;
23280;SDS011;11809;56.390;-3.266;2023-05-20T03:08:57;4.32;;;2.38;;
23280;SDS011;11809;56.390;-3.266;2023-05-20T03:11:24;2.95;;;2.15;;
23280;SDS011;11809;56.390;-3.266;2023-05-20T03:13:51;4.47;;;2.70;;
23280;SDS011;11809;56.390;-3.266;2023-05-20T03:16:19;4.35;;;2.55;;
23280;SDS011;11809;56.390;-3.266;2023-05-20T03:18:46;3.97;;;2.47;;
23280;SDS011;11809;56.390;-3.266;2023-05-20T03:21:13;2.58;;;2.10;;
23280;SDS011;11809;56.390;-3.266;2023-05-20T03:23:40;3.72;;;2.10;;
23280;SDS011;11809;56.390;-3.266;2023-05-20T03:26:07;5.03;;;2.40;;
23280;SDS011;11809;56.390;-3.266;2023-05-20T03:28:34;3.40;;;2.00;;
23280;SDS011;11809;56.390;-3.266;2023-05-20T03:31:01;4.03;;;2.70;;
23280;SDS011;11809;56.390;-3.266;2023-05-20T03:33:30;4.18;;;2.30;;
23280;SDS011;11809;56.390;-3.266;2023-05-20T03:35:57;5.90;;;2.97;;
23280;SDS011;11809;56.390;-3.266;2023-05-20T03:38:24;2.22;;;1.95;;
23280;SDS011;11809;56.390;-3.266;2023-05-20T03:40:51;3.40;;;2.50;;
23280;SDS011;11809;56.390;-3.266;2023-05-20T03:43:18;5.25;;;2.42;;
23280;SDS011;11809;56.390;-3.266;2023-05-20T03:45:45;4.43;;;2.35;;
23280;SDS011;11809;56.390;-3.266;2023-05-20T03:48:12;4.30;;;2.70;;
23280;SDS011;11809;56.390;-3.266;2023-05-20T03:50:39;5.03;;;2.50;;
23280;SDS011;11809;56.390;-3.266;2023-05-20T03:53:06;2.30;;;2.00;;
23280;SDS011;11809;56.390;-3.266;2023-05-20T03:55:33;2.55;;;2.20;;
23280;SDS011;11809;56.390;-3.266;2023-05-20T03:58:01;4.93;;;2.20;;
23280;SDS011;11809;56.390;-3.266;2023-05-20T04:00:28;3.17;;;2.22;;
23280;SDS011;11809;56.390;-3.266;2023-05-20T04:02:57;6.68;;;2.50;;
23280;SDS011;11809;56.390;-3.266;2023-05-20T04:05:24;2.95;;;2.38;;
23280;SDS011;11809;56.390;-3.266;2023-05-20T04:07:52;2.42;;;2.22;;
23280;SDS011;11809;56.390;-3.266;2023-05-20T04:10:19;4.70;;;2.15;;
23280;SDS011;11809;56.390;-3.266;2023-05-20T04:12:47;4.28;;;2.20;;
23280;SDS011;11809;56.390;-3.266;2023-05-20T04:15:14;2.45;;;2.15;;
23280;SDS011;11809;56.390;-3.266;2023-05-20T04:17:41;3.72;;;2.60;;
23280;SDS011;11809;56.390;-3.266;2023-05-20T04:20:09;4.38;;;2.40;;
23280;SDS011;11809;56.390;-3.266;2023-05-20T04:22:36;3.60;;;2.13;;
23280;SDS011;11809;56.390;-3.266;2023-05-20T04:25:05;4.65;;;2.50;;
23280;SDS011;11809;56.390;-3.266;2023-05-20T04:27:33;4.68;;;2.20;;
23280;SDS011;11809;56.390;-3.266;2023-05-20T04:30:00;3.58;;;2.28;;
23280;SDS011;11809;56.390;-3.266;2023-05-20T04:32:28;4.72;;;2.38;;
23280;SDS011;11809;56.390;-3.266;2023-05-20T04:34:55;3.50;;;2.38;;
23280;SDS011;11809;56.390;-3.266;2023-05-20T04:37:22;3.85;;;2.30;;
23280;SDS011;11809;56.390;-3.266;2023-05-20T04:39:50;3.33;;;1.98;;
23280;SDS011;11809;56.390;-3.266;2023-05-20T04:42:18;3.10;;;2.40;;
23280;SDS011;11809;56.390;-3.266;2023-05-20T04:44:47;2.80;;;2.00;;
23280;SDS011;11809;56.390;-3.266;2023-05-20T04:47:14;2.60;;;2.13;;
23280;SDS011;11809;56.390;-3.266;2023-05-20T04:49:41;3.30;;;2.35;;
23280;SDS011;11809;56.390;-3.266;2023-05-20T04:52:09;3.97;;;2.35;;
23280;SDS011;11809;56.390;-3.266;2023-05-20T04:54:36;3.03;;;1.95;;
23280;SDS011;11809;56.390;-3.266;2023-05-20T04:57:03;5.53;;;2.53;;
23280;SDS011;11809;56.390;-3.266;2023-05-20T04:59:31;3.25;;;2.30;;
23280;SDS011;11809;56.390;-3.266;2023-05-20T05:01:58;3.65;;;2.30;;
23280;SDS011;11809;56.390;-3.266;2023-05-20T05:04:25;2.72;;;1.98;;
23280;SDS011;11809;56.390;-3.266;2023-05-20T05:06:52;3.60;;;2.30;;
23280;SDS011;11809;56.390;-3.266;2023-05-20T05:09:19;3.65;;;2.38;;
23280;SDS011;11809;56.390;-3.266;2023-05-20T05:11:46;3.85;;;2.40;;
23280;SDS011;11809;56.390;-3.266;2023-05-20T05:14:13;3.97;;;2.50;;
23280;SDS011;11809;56.390;-3.266;2023-05-20T05:16:40;4.22;;;2.50;;
23280;SDS011;11809;56.390;-3.266;2023-05-20T05:19:07;30.95;;;3.53;;
23280;SDS011;11809;56.390;-3.266;2023-05-20T05:21:34;14.02;;;3.22;;
23280;SDS011;11809;56.390;-3.266;2023-05-20T05:24:02;67.75;;;5.45;;
23280;SDS011;11809;56.390;-3.266;2023-05-20T05:26:29;19.58;;;3.22;;
23280;SDS011;11809;56.390;-3.266;2023-05-20T05:28:56;19.55;;;2.60;;
23280;SDS011;11809;56.390;-3.266;2023-05-20T05:31:23;23.23;;;2.90;;
23280;SDS011;11809;56.390;-3.266;2023-05-20T05:33:50;18.05;;;2.80;;
23280;SDS011;11809;56.390;-3.266;2023-05-20T05:36:17;34.75;;;3.60;;
23280;SDS011;11809;56.390;-3.266;2023-05-20T05:38:44;15.73;;;4.22;;
23280;SDS011;11809;56.390;-3.266;2023-05-20T05:41:11;13.55;;;4.28;;
23280;SDS011;11809;56.390;-3.266;2023-05-20T05:43:38;25.40;;;4.60;;
23280;SDS011;11809;56.390;-3.266;2023-05-20T05:46:06;89.28;;;8.07;;
23280;SDS011;11809;56.390;-3.266;2023-05-20T05:48:33;60.03;;;6.10;;
23280;SDS011;11809;56.390;-3.266;2023-05-20T05:51:00;180.90;;;13.02;;
23280;SDS011;11809;56.390;-3.266;2023-05-20T05:53:27;103.43;;;8.20;;
23280;SDS011;11809;56.390;-3.266;2023-05-20T05:55:54;69.82;;;7.00;;
23280;SDS011;11809;56.390;-3.266;2023-05-20T05:58:21;44.55;;;5.45;;
23280;SDS011;11809;56.390;-3.266;2023-05-20T06:00:51;40.80;;;5.20;;
23280;SDS011;11809;56.390;-3.266;2023-05-20T06:03:18;29.08;;;5.18;;
23280;SDS011;11809;56.390;-3.266;2023-05-20T06:05:46;27.95;;;4.40;;
23280;SDS011;11809;56.390;-3.266;2023-05-20T06:08:13;44.63;;;5.38;;
23280;SDS011;11809;56.390;-3.266;2023-05-20T06:10:40;44.50;;;4.75;;
23280;SDS011;11809;56.390;-3.266;2023-05-20T06:13:07;57.72;;;5.65;;
23280;SDS011;11809;56.390;-3.266;2023-05-20T06:15:35;30.17;;;5.75;;
23280;SDS011;11809;56.390;-3.266;2023-05-20T06:18:02;31.77;;;4.53;;
23280;SDS011;11809;56.390;-3.266;2023-05-20T06:20:29;40.53;;;5.40;;
23280;SDS011;11809;56.390;-3.266;2023-05-20T06:22:56;45.67;;;5.57;;
23280;SDS011;11809;56.390;-3.266;2023-05-20T06:25:23;41.47;;;5.55;;
23280;SDS011;11809;56.390;-3.266;2023-05-20T06:27:51;22.65;;;4.15;;
23280;SDS011;11809;56.390;-3.266;2023-05-20T06:30:18;32.60;;;4.70;;
23280;SDS011;11809;56.390;-3.266;2023-05-20T06:32:45;47.25;;;5.68;;
23280;SDS011;11809;56.390;-3.266;2023-05-20T06:35:12;26.98;;;3.97;;
23280;SDS011;11809;56.390;-3.266;2023-05-20T06:37:40;40.58;;;4.93;;
23280;SDS011;11809;56.390;-3.266;2023-05-20T06:40:07;31.02;;;4.75;;
23280;SDS011;11809;56.390;-3.266;2023-05-20T06:42:35;25.90;;;5.63;;
23280;SDS011;11809;56.390;-3.266;2023-05-20T06:45:02;11.60;;;4.18;;
23280;SDS011;11809;56.390;-3.266;2023-05-20T06:47:29;43.70;;;6.03;;
23280;SDS011;11809;56.390;-3.266;2023-05-20T06:49:56;34.45;;;5.28;;
23280;SDS011;11809;56.390;-3.266;2023-05-20T06:52:23;22.77;;;4.55;;
23280;SDS011;11809;56.390;-3.266;2023-05-20T06:54:50;16.75;;;4.40;;
23280;SDS011;11809;56.390;-3.266;2023-05-20T06:57:18;44.88;;;5.03;;
23280;SDS011;11809;56.390;-3.266;2023-05-20T06:59:45;20.17;;;3.55;;
23280;SDS011;11809;56.390;-3.266;2023-05-20T07:02:12;14.80;;;4.03;;
23280;SDS011;11809;56.390;-3.266;2023-05-20T07:04:39;18.38;;;4.20;;
23280;SDS011;11809;56.390;-3.266;2023-05-20T07:07:06;18.92;;;3.60;;
23280;SDS011;11809;56.390;-3.266;2023-05-20T07:09:34;11.55;;;3.58;;
23280;SDS011;11809;56.390;-3.266;2023-05-20T07:12:01;15.18;;;3.35;;
23280;SDS011;11809;56.390;-3.266;2023-05-20T07:14:29;12.05;;;3.15;;
23280;SDS011;11809;56.390;-3.266;2023-05-20T07:16:56;15.90;;;3.38;;
23280;SDS011;11809;56.390;-3.266;2023-05-20T07:19:23;10.02;;;2.72;;
23280;SDS011;11809;56.390;-3.266;2023-05-20T07:21:51;10.25;;;3.10;;
23280;SDS011;11809;56.390;-3.266;2023-05-20T07:24:18;15.88;;;3.53;;
23280;SDS011;11809;56.390;-3.266;2023-05-20T07:26:45;41.13;;;4.50;;
23280;SDS011;11809;56.390;-3.266;2023-05-20T07:29:12;10.68;;;3.28;;
23280;SDS011;11809;56.390;-3.266;2023-05-20T07:31:39;15.75;;;3.28;;
23280;SDS011;11809;56.390;-3.266;2023-05-20T07:34:06;15.85;;;3.00;;
23280;SDS011;11809;56.390;-3.266;2023-05-20T07:36:33;12.43;;;2.97;;
23280;SDS011;11809;56.390;-3.266;2023-05-20T07:39:01;11.75;;;3.03;;
23280;SDS011;11809;56.390;-3.266;2023-05-20T07:41:34;10.10;;;3.13;;
23280;SDS011;11809;56.390;-3.266;2023-05-20T07:44:03;11.30;;;3.00;;
23280;SDS011;11809;56.390;-3.266;2023-05-20T07:46:31;11.27;;;3.33;;
23280;SDS011;11809;56.390;-3.266;2023-05-20T07:48:58;9.38;;;2.95;;
23280;SDS011;11809;56.390;-3.266;2023-05-20T07:51:25;8.98;;;2.80;;
23280;SDS011;11809;56.390;-3.266;2023-05-20T07:53:53;39.40;;;3.35;;
23280;SDS011;11809;56.390;-3.266;2023-05-20T07:56:20;18.40;;;3.70;;
23280;SDS011;11809;56.390;-3.266;2023-05-20T07:58:51;11.07;;;2.72;;
23280;SDS011;11809;56.390;-3.266;2023-05-20T08:01:19;15.98;;;3.33;;
23280;SDS011;11809;56.390;-3.266;2023-05-20T08:03:48;28.30;;;4.25;;
23280;SDS011;11809;56.390;-3.266;2023-05-20T08:06:15;22.40;;;4.80;;
23280;SDS011;11809;56.390;-3.266;2023-05-20T08:08:42;29.27;;;5.43;;
23280;SDS011;11809;56.390;-3.266;2023-05-20T08:11:10;25.40;;;5.75;;
23280;SDS011;11809;56.390;-3.266;2023-05-20T08:13:37;22.60;;;4.72;;
23280;SDS011;11809;56.390;-3.266;2023-05-20T08:16:04;36.25;;;6.38;;
23280;SDS011;11809;56.390;-3.266;2023-05-20T08:18:33;28.35;;;5.35;;
23280;SDS011;11809;56.390;-3.266;2023-05-20T08:21:02;27.13;;;4.95;;
23280;SDS011;11809;56.390;-3.266;2023-05-20T08:23:29;29.25;;;5.18;;
23280;SDS011;11809;56.390;-3.266;2023-05-20T08:26:01;29.80;;;5.60;;
23280;SDS011;11809;56.390;-3.266;2023-05-20T08:28:29;17.05;;;4.00;;
23280;SDS011;11809;56.390;-3.266;2023-05-20T08:30:56;14.15;;;3.97;;
23280;SDS011;11809;56.390;-3.266;2023-05-20T08:33:24;15.50;;;3.60;;
23280;SDS011;11809;56.390;-3.266;2023-05-20T08:35:52;11.70;;;3.60;;
23280;SDS011;11809;56.390;-3.266;2023-05-20T08:38:19;11.77;;;3.67;;
23280;SDS011;11809;56.390;-3.266;2023-05-20T08:40:50;13.63;;;3.50;;
23280;SDS011;11809;56.390;-3.266;2023-05-20T08:43:19;9.25;;;3.33;;
23280;SDS011;11809;56.390;-3.266;2023-05-20T08:45:47;22.08;;;3.33;;
23280;SDS011;11809;56.390;-3.266;2023-05-20T08:48:18;20.15;;;4.18;;
23280;SDS011;11809;56.390;-3.266;2023-05-20T08:50:49;15.18;;;3.65;;
23280;SDS011;11809;56.390;-3.266;2023-05-20T08:53:18;11.80;;;2.90;;
23280;SDS011;11809;56.390;-3.266;2023-05-20T08:55:52;12.38;;;3.38;;
23280;SDS011;11809;56.390;-3.266;2023-05-20T08:58:23;10.77;;;3.20;;
23280;SDS011;11809;56.390;-3.266;2023-05-20T09:00:50;8.07;;;2.78;;
23280;SDS011;11809;56.390;-3.266;2023-05-20T09:03:18;9.10;;;2.75;;
23280;SDS011;11809;56.390;-3.266;2023-05-20T09:05:46;8.88;;;3.25;;
23280;SDS011;11809;56.390;-3.266;2023-05-20T09:08:14;7.30;;;2.80;;
23280;SDS011;11809;56.390;-3.266;2023-05-20T09:10:41;10.35;;;2.78;;
23280;SDS011;11809;56.390;-3.266;2023-05-20T09:13:09;8.35;;;2.92;;
23280;SDS011;11809;56.390;-3.266;2023-05-20T09:15:37;8.20;;;3.10;;
23280;SDS011;11809;56.390;-3.266;2023-05-20T09:18:05;5.63;;;2.90;;
23280;SDS011;11809;56.390;-3.266;2023-05-20T09:20:34;7.93;;;2.83;;
23280;SDS011;11809;56.390;-3.266;2023-05-20T09:23:04;8.18;;;2.78;;
23280;SDS011;11809;56.390;-3.266;2023-05-20T09:25:32;5.95;;;2.55;;
23280;SDS011;11809;56.390;-3.266;2023-05-20T09:28:04;6.60;;;2.42;;
23280;SDS011;11809;56.390;-3.266;2023-05-20T09:30:33;4.57;;;2.50;;
23280;SDS011;11809;56.390;-3.266;2023-05-20T09:33:04;5.38;;;2.92;;
23280;SDS011;11809;56.390;-3.266;2023-05-20T09:35:33;4.47;;;2.75;;
23280;SDS011;11809;56.390;-3.266;2023-05-20T09:38:03;6.88;;;2.47;;
23280;SDS011;11809;56.390;-3.266;2023-05-20T09:40:35;6.38;;;2.53;;
23280;SDS011;11809;56.390;-3.266;2023-05-20T09:43:04;6.47;;;2.58;;
23280;SDS011;11809;56.390;-3.266;2023-05-20T09:45:37;5.28;;;2.47;;
23280;SDS011;11809;56.390;-3.266;2023-05-20T09:48:04;5.45;;;2.40;;
23280;SDS011;11809;56.390;-3.266;2023-05-20T09:50:34;6.70;;;3.03;;
23280;SDS011;11809;56.390;-3.266;2023-05-20T09:53:03;6.72;;;2.70;;
23280;SDS011;11809;56.390;-3.266;2023-05-20T09:55:30;4.53;;;2.40;;
23280;SDS011;11809;56.390;-3.266;2023-05-20T09:58:02;6.40;;;2.63;;
23280;SDS011;11809;56.390;-3.266;2023-05-20T10:00:29;3.97;;;2.30;;
23280;SDS011;11809;56.390;-3.266;2023-05-20T10:02:58;4.22;;;2.40;;
23280;SDS011;11809;56.390;-3.266;2023-05-20T10:05:39;4.82;;;2.55;;
23280;SDS011;11809;56.390;-3.266;2023-05-20T10:11:21;5.93;;;2.40;;
23280;SDS011;11809;56.390;-3.266;2023-05-20T10:17:18;3.92;;;2.08;;
23280;SDS011;11809;56.390;-3.266;2023-05-20T10:19:56;4.13;;;2.33;;
23280;SDS011;11809;56.390;-3.266;2023-05-20T10:22:25;3.85;;;2.42;;
23280;SDS011;11809;56.390;-3.266;2023-05-20T10:24:58;7.05;;;2.42;;
23280;SDS011;11809;56.390;-3.266;2023-05-20T10:27:27;3.72;;;2.22;;
23280;SDS011;11809;56.390;-3.266;2023-05-20T10:29:54;6.20;;;2.75;;
23280;SDS011;11809;56.390;-3.266;2023-05-20T10:32:29;7.15;;;2.50;;
23280;SDS011;11809;56.390;-3.266;2023-05-20T10:35:07;6.55;;;2.70;;
23280;SDS011;11809;56.390;-3.266;2023-05-20T10:37:40;16.08;;;4.40;;
23280;SDS011;11809;56.390;-3.266;2023-05-20T10:42:42;15.27;;;5.28;;
23280;SDS011;11809;56.390;-3.266;2023-05-20T10:45:10;12.52;;;5.00;;
23280;SDS011;11809;56.390;-3.266;2023-05-20T10:47:41;12.50;;;4.50;;
23280;SDS011;11809;56.390;-3.266;2023-05-20T10:50:26;15.95;;;5.55;;
23280;SDS011;11809;56.390;-3.266;2023-05-20T10:53:06;24.40;;;5.93;;
23280;SDS011;11809;56.390;-3.266;2023-05-20T10:55:54;14.27;;;4.90;;
23280;SDS011;11809;56.390;-3.266;2023-05-20T10:58:23;16.27;;;5.10;;
23280;SDS011;11809;56.390;-3.266;2023-05-20T11:00:52;19.20;;;5.57;;
23280;SDS011;11809;56.390;-3.266;2023-05-20T11:03:20;17.67;;;4.82;;
23280;SDS011;11809;56.390;-3.266;2023-05-20T11:05:49;15.38;;;4.45;;
23280;SDS011;11809;56.390;-3.266;2023-05-20T11:08:17;16.35;;;4.63;;
23280;SDS011;11809;56.390;-3.266;2023-05-20T11:10:55;10.73;;;4.22;;
23280;SDS011;11809;56.390;-3.266;2023-05-20T11:13:23;23.90;;;4.00;;
23280;SDS011;11809;56.390;-3.266;2023-05-20T11:15:51;16.17;;;3.80;;
23280;SDS011;11809;56.390;-3.266;2023-05-20T11:18:19;23.80;;;4.20;;
23280;SDS011;11809;56.390;-3.266;2023-05-20T11:20:47;25.77;;;4.95;;
23280;SDS011;11809;56.390;-3.266;2023-05-20T11:23:15;18.13;;;4.47;;
23280;SDS011;11809;56.390;-3.266;2023-05-20T11:25:42;33.60;;;5.47;;
23280;SDS011;11809;56.390;-3.266;2023-05-20T11:28:12;18.48;;;3.80;;
23280;SDS011;11809;56.390;-3.266;2023-05-20T11:30:42;21.25;;;3.95;;
23280;SDS011;11809;56.390;-3.266;2023-05-20T11:33:13;21.75;;;3.83;;
23280;SDS011;11809;56.390;-3.266;2023-05-20T11:35:45;23.02;;;4.00;;
23280;SDS011;11809;56.390;-3.266;2023-05-20T11:38:13;27.60;;;4.68;;
23280;SDS011;11809;56.390;-3.266;2023-05-20T11:40:42;17.20;;;3.83;;
23280;SDS011;11809;56.390;-3.266;2023-05-20T11:43:16;21.00;;;4.47;;
23280;SDS011;11809;56.390;-3.266;2023-05-20T11:45:45;29.88;;;3.90;;
23280;SDS011;11809;56.390;-3.266;2023-05-20T11:48:18;21.20;;;3.75;;
23280;SDS011;11809;56.390;-3.266;2023-05-20T11:50:46;32.30;;;4.65;;
23280;SDS011;11809;56.390;-3.266;2023-05-20T11:53:17;34.50;;;5.43;;
23280;SDS011;11809;56.390;-3.266;2023-05-20T11:55:54;42.30;;;4.45;;
23280;SDS011;11809;56.390;-3.266;2023-05-20T11:58:25;28.85;;;4.30;;
23280;SDS011;11809;56.390;-3.266;2023-05-20T12:00:55;32.53;;;4.55;;
23280;SDS011;11809;56.390;-3.266;2023-05-20T12:03:39;91.75;;;7.63;;
23280;SDS011;11809;56.390;-3.266;2023-05-20T12:06:07;43.22;;;4.65;;
23280;SDS011;11809;56.390;-3.266;2023-05-20T12:08:38;41.33;;;4.63;;
23280;SDS011;11809;56.390;-3.266;2023-05-20T12:11:05;87.35;;;6.47;;
23280;SDS011;11809;56.390;-3.266;2023-05-20T12:13:33;43.78;;;5.53;;
23280;SDS011;11809;56.390;-3.266;2023-05-20T12:16:01;24.70;;;5.43;;
23280;SDS011;11809;56.390;-3.266;2023-05-20T12:18:28;29.20;;;5.57;;
23280;SDS011;11809;56.390;-3.266;2023-05-20T12:20:55;20.30;;;5.13;;
23280;SDS011;11809;56.390;-3.266;2023-05-20T12:23:22;32.80;;;6.35;;
23280;SDS011;11809;56.390;-3.266;2023-05-20T12:25:50;36.38;;;5.45;;
23280;SDS011;11809;56.390;-3.266;2023-05-20T12:28:17;34.70;;;5.28;;
23280;SDS011;11809;56.390;-3.266;2023-05-20T12:30:45;30.92;;;6.20;;
23280;SDS011;11809;56.390;-3.266;2023-05-20T12:33:12;24.38;;;5.10;;
23280;SDS011;11809;56.390;-3.266;2023-05-20T12:35:40;19.55;;;4.40;;
23280;SDS011;11809;56.390;-3.266;2023-05-20T12:38:08;18.15;;;4.30;;
23280;SDS011;11809;56.390;-3.266;2023-05-20T12:40:36;14.73;;;4.43;;
23280;SDS011;11809;56.390;-3.266;2023-05-20T12:43:04;16.75;;;3.95;;
23280;SDS011;11809;56.390;-3.266;2023-05-20T12:45:34;17.47;;;4.20;;
23280;SDS011;11809;56.390;-3.266;2023-05-20T12:48:02;13.27;;;4.00;;
23280;SDS011;11809;56.390;-3.266;2023-05-20T12:50:31;17.90;;;4.18;;
23280;SDS011;11809;56.390;-3.266;2023-05-20T12:52:59;11.48;;;3.65;;
23280;SDS011;11809;56.390;-3.266;2023-05-20T12:55:27;53.25;;;5.40;;
23280;SDS011;11809;56.390;-3.266;2023-05-20T12:57:54;21.77;;;4.47;;
23280;SDS011;11809;56.390;-3.266;2023-05-20T13:00:22;18.15;;;4.00;;
23280;SDS011;11809;56.390;-3.266;2023-05-20T13:02:49;10.65;;;3.20;;
23280;SDS011;11809;56.390;-3.266;2023-05-20T13:05:18;11.82;;;3.58;;
23280;SDS011;11809;56.390;-3.266;2023-05-20T13:07:46;8.80;;;3.17;;
23280;SDS011;11809;56.390;-3.266;2023-05-20T13:10:14;15.30;;;4.18;;
23280;SDS011;11809;56.390;-3.266;2023-05-20T13:12:43;15.25;;;3.78;;
23280;SDS011;11809;56.390;-3.266;2023-05-20T13:15:12;12.25;;;3.08;;
23280;SDS011;11809;56.390;-3.266;2023-05-20T13:17:42;17.80;;;3.57;;
23280;SDS011;11809;56.390;-3.266;2023-05-20T13:20:10;16.13;;;3.72;;
23280;SDS011;11809;56.390;-3.266;2023-05-20T13:22:37;15.00;;;3.40;;
23280;SDS011;11809;56.390;-3.266;2023-05-20T13:25:05;32.22;;;4.50;;
23280;SDS011;11809;56.390;-3.266;2023-05-20T13:27:32;27.30;;;3.97;;
23280;SDS011;11809;56.390;-3.266;2023-05-20T13:30:00;35.22;;;3.88;;
23280;SDS011;11809;56.390;-3.266;2023-05-20T13:32:27;71.35;;;6.10;;
23280;SDS011;11809;56.390;-3.266;2023-05-20T13:34:55;30.67;;;4.40;;
23280;SDS011;11809;56.390;-3.266;2023-05-20T13:37:22;27.65;;;4.57;;
23280;SDS011;11809;56.390;-3.266;2023-05-20T13:39:50;59.53;;;5.00;;
23280;SDS011;11809;56.390;-3.266;2023-05-20T13:42:17;75.50;;;5.63;;
23280;SDS011;11809;56.390;-3.266;2023-05-20T13:44:44;57.28;;;5.45;;
23280;SDS011;11809;56.390;-3.266;2023-05-20T13:47:12;56.33;;;5.10;;
23280;SDS011;11809;56.390;-3.266;2023-05-20T13:49:39;20.65;;;4.10;;
23280;SDS011;11809;56.390;-3.266;2023-05-20T13:52:07;30.90;;;4.72;;
23280;SDS011;11809;56.390;-3.266;2023-05-20T13:54:34;11.93;;;3.95;;
23280;SDS011;11809;56.390;-3.266;2023-05-20T13:57:02;19.33;;;4.80;;
23280;SDS011;11809;56.390;-3.266;2023-05-20T13:59:33;13.43;;;4.10;;
23280;SDS011;11809;56.390;-3.266;2023-05-20T14:02:01;17.10;;;4.35;;
23280;SDS011;11809;56.390;-3.266;2023-05-20T14:04:28;39.58;;;5.10;;
23280;SDS011;11809;56.390;-3.266;2023-05-20T14:06:56;34.25;;;5.10;;
23280;SDS011;11809;56.390;-3.266;2023-05-20T14:09:25;20.90;;;4.07;;
23280;SDS011;11809;56.390;-3.266;2023-05-20T14:11:53;16.15;;;3.60;;
23280;SDS011;11809;56.390;-3.266;2023-05-20T14:14:20;115.45;;;8.40;;
23280;SDS011;11809;56.390;-3.266;2023-05-20T14:16:47;111.80;;;8.52;;
23280;SDS011;11809;56.390;-3.266;2023-05-20T14:19:15;70.78;;;6.00;;
23280;SDS011;11809;56.390;-3.266;2023-05-20T14:21:42;44.55;;;5.05;;
23280;SDS011;11809;56.390;-3.266;2023-05-20T14:24:09;30.88;;;4.00;;
23280;SDS011;11809;56.390;-3.266;2023-05-20T14:26:36;22.95;;;4.50;;
23280;SDS011;11809;56.390;-3.266;2023-05-20T14:29:04;30.45;;;4.70;;
23280;SDS011;11809;56.390;-3.266;2023-05-20T14:31:32;26.98;;;4.10;;
23280;SDS011;11809;56.390;-3.266;2023-05-20T14:33:59;28.15;;;4.00;;
23280;SDS011;11809;56.390;-3.266;2023-05-20T14:36:27;68.88;;;5.50;;
23280;SDS011;11809;56.390;-3.266;2023-05-20T14:38:54;57.08;;;5.72;;
23280;SDS011;11809;56.390;-3.266;2023-05-20T14:41:21;98.82;;;7.43;;
23280;SDS011;11809;56.390;-3.266;2023-05-20T14:43:49;42.55;;;4.80;;
23280;SDS011;11809;56.390;-3.266;2023-05-20T14:46:17;36.63;;;4.43;;